sensor_id;sensor_type;location;lat;lon;timestamp;pressure;altitude;pressure_sealevel;temperature;humidity
28181;BME280;15464;50.988;10.318;2022-09-20T00:03:37;99271.25;;;8.59;100.00
28181;BME280;15464;50.988;10.318;2022-09-20T00:06:06;99278.94;;;8.62;100.00
28181;BME280;15464;50.988;10.318;2022-09-20T00:08:34;99276.03;;;8.54;100.00
28181;BME280;15464;50.988;10.318;2022-09-20T00:11:05;99271.69;;;8.53;100.00
28181;BME280;15464;50.988;10.318;2022-09-20T00:13:33;99270.94;;;8.51;100.00
28181;BME280;15464;50.988;10.318;2022-09-20T00:16:04;99271.69;;;8.53;100.00
28181;BME280;15464;50.988;10.318;2022-09-20T00:18:32;99274.53;;;8.50;100.00
28181;BME280;15464;50.988;10.318;2022-09-20T00:20:58;99268.81;;;8.56;100.00
28181;BME280;15464;50.988;10.318;2022-09-20T00:23:25;99267.25;;;8.54;100.00
28181;BME280;15464;50.988;10.318;2022-09-20T00:25:56;99271.69;;;8.53;100.00
28181;BME280;15464;50.988;10.318;2022-09-20T00:28:24;99270.09;;;8.50;100.00
28181;BME280;15464;50.988;10.318;2022-09-20T00:30:51;99270.25;;;8.49;100.00
28181;BME280;15464;50.988;10.318;2022-09-20T00:33:19;99276.25;;;8.51;100.00
28181;BME280;15464;50.988;10.318;2022-09-20T00:35:45;99275.41;;;8.50;100.00
28181;BME280;15464;50.988;10.318;2022-09-20T00:38:13;99279.63;;;8.53;100.00
28181;BME280;15464;50.988;10.318;2022-09-20T00:40:42;99270.94;;;8.51;100.00
28181;BME280;15464;50.988;10.318;2022-09-20T00:43:17;99279.63;;;8.53;100.00
28181;BME280;15464;50.988;10.318;2022-09-20T00:45:46;99276.88;;;8.55;100.00
28181;BME280;15464;50.988;10.318;2022-09-20T00:50:48;99276.03;;;8.54;100.00
28181;BME280;15464;50.988;10.318;2022-09-20T00:53:20;99276.75;;;8.56;100.00
28181;BME280;15464;50.988;10.318;2022-09-20T00:55:56;99270.31;;;8.60;100.00
28181;BME280;15464;50.988;10.318;2022-09-20T00:58:25;99281.38;;;8.65;100.00
28181;BME280;15464;50.988;10.318;2022-09-20T01:00:53;99277.91;;;8.65;100.00
28181;BME280;15464;50.988;10.318;2022-09-20T01:03:22;99290.28;;;8.64;100.00
28181;BME280;15464;50.988;10.318;2022-09-20T01:05:52;99279.34;;;8.69;100.00
28181;BME280;15464;50.988;10.318;2022-09-20T01:08:20;99284.53;;;8.70;100.00
28181;BME280;15464;50.988;10.318;2022-09-20T01:10:50;99288.03;;;8.71;100.00
28181;BME280;15464;50.988;10.318;2022-09-20T01:13:17;99286.97;;;8.73;100.00
28181;BME280;15464;50.988;10.318;2022-09-20T01:15:45;99280.75;;;8.74;100.00
28181;BME280;15464;50.988;10.318;2022-09-20T01:18:14;99279.75;;;8.75;100.00
28181;BME280;15464;50.988;10.318;2022-09-20T01:20:43;99282.31;;;8.77;100.00
28181;BME280;15464;50.988;10.318;2022-09-20T01:28:38;99282.69;;;8.83;100.00
28181;BME280;15464;50.988;10.318;2022-09-20T01:31:14;99286.28;;;8.82;100.00
28181;BME280;15464;50.988;10.318;2022-09-20T01:33:52;99281.84;;;8.83;100.00
28181;BME280;15464;50.988;10.318;2022-09-20T01:36:24;99279.94;;;8.85;100.00
28181;BME280;15464;50.988;10.318;2022-09-20T01:42:06;99281.25;;;8.79;100.00
28181;BME280;15464;50.988;10.318;2022-09-20T01:50:59;99285.69;;;8.79;100.00
28181;BME280;15464;50.988;10.318;2022-09-20T01:53:45;99276.47;;;8.84;100.00
28181;BME280;15464;50.988;10.318;2022-09-20T02:12:50;99282.69;;;8.83;100.00
28181;BME280;15464;50.988;10.318;2022-09-20T02:18:54;99283.53;;;8.84;100.00
28181;BME280;15464;50.988;10.318;2022-09-20T02:21:29;99281.00;;;8.82;100.00
28181;BME280;15464;50.988;10.318;2022-09-20T02:38:07;99277.66;;;8.80;100.00
28181;BME280;15464;50.988;10.318;2022-09-20T02:46:21;99276.66;;;8.81;100.00
28181;BME280;15464;50.988;10.318;2022-09-20T02:49:11;99273.06;;;8.82;100.00
28181;BME280;15464;50.988;10.318;2022-09-20T02:51:51;99276.56;;;8.83;100.00
28181;BME280;15464;50.988;10.318;2022-09-20T02:57:54;99280.16;;;8.82;100.00
28181;BME280;15464;50.988;10.318;2022-09-20T03:00:41;99279.56;;;8.78;100.00
28181;BME280;15464;50.988;10.318;2022-09-20T03:06:11;99275.00;;;8.80;100.00
28181;BME280;15464;50.988;10.318;2022-09-20T03:09:06;99281.69;;;8.73;100.00
28181;BME280;15464;50.988;10.318;2022-09-20T03:14:15;99285.28;;;8.72;100.00
28181;BME280;15464;50.988;10.318;2022-09-20T03:19:23;99279.25;;;8.70;100.00
28181;BME280;15464;50.988;10.318;2022-09-20T03:22:19;99279.59;;;8.66;100.00
28181;BME280;15464;50.988;10.318;2022-09-20T03:28:08;99293.03;;;8.63;100.00
28181;BME280;15464;50.988;10.318;2022-09-20T03:44:00;99283.09;;;8.66;100.00
28181;BME280;15464;50.988;10.318;2022-09-20T04:00:14;99282.56;;;8.61;100.00
28181;BME280;15464;50.988;10.318;2022-09-20T04:02:59;99291.13;;;8.65;100.00
28181;BME280;15464;50.988;10.318;2022-09-20T07:07:16;99407.88;;;8.71;100.00
28181;BME280;15464;50.988;10.318;2022-09-20T07:09:44;99416.84;;;8.81;100.00
28181;BME280;15464;50.988;10.318;2022-09-20T07:12:11;99407.53;;;8.88;100.00
28181;BME280;15464;50.988;10.318;2022-09-20T07:14:38;99409.19;;;9.02;100.00
28181;BME280;15464;50.988;10.318;2022-09-20T07:17:05;99412.81;;;9.25;100.00
28181;BME280;15464;50.988;10.318;2022-09-20T07:19:32;99417.53;;;9.45;100.00
28181;BME280;15464;50.988;10.318;2022-09-20T07:21:59;99412.22;;;9.69;100.00
28181;BME280;15464;50.988;10.318;2022-09-20T07:24:25;99411.44;;;9.80;100.00
28181;BME280;15464;50.988;10.318;2022-09-20T07:27:00;99414.13;;;9.91;100.00
28181;BME280;15464;50.988;10.318;2022-09-20T07:29:28;99415.09;;;10.01;100.00
28181;BME280;15464;50.988;10.318;2022-09-20T07:31:55;99405.50;;;10.11;100.00
28181;BME280;15464;50.988;10.318;2022-09-20T07:34:22;99424.19;;;10.09;100.00
28181;BME280;15464;50.988;10.318;2022-09-20T07:36:49;99422.88;;;10.15;100.00
28181;BME280;15464;50.988;10.318;2022-09-20T07:39:17;99428.22;;;10.37;100.00
28181;BME280;15464;50.988;10.318;2022-09-20T07:41:44;99431.63;;;10.39;100.00
28181;BME280;15464;50.988;10.318;2022-09-20T07:44:16;99425.88;;;10.10;100.00
28181;BME280;15464;50.988;10.318;2022-09-20T07:47:07;99433.03;;;10.21;100.00
28181;BME280;15464;50.988;10.318;2022-09-20T07:49:36;99433.91;;;10.44;100.00
28181;BME280;15464;50.988;10.318;2022-09-20T07:52:03;99434.66;;;10.57;100.00
28181;BME280;15464;50.988;10.318;2022-09-20T07:54:30;99436.72;;;10.65;99.22
28181;BME280;15464;50.988;10.318;2022-09-20T07:56:56;99433.81;;;10.57;96.31
28181;BME280;15464;50.988;10.318;2022-09-20T07:59:23;99441.78;;;10.57;94.99
28181;BME280;15464;50.988;10.318;2022-09-20T08:01:51;99441.44;;;10.61;95.78
28181;BME280;15464;50.988;10.318;2022-09-20T08:04:17;99438.63;;;10.63;95.52
28181;BME280;15464;50.988;10.318;2022-09-20T08:06:44;99443.56;;;10.56;94.72
28181;BME280;15464;50.988;10.318;2022-09-20T08:09:12;99444.19;;;10.60;94.16
28181;BME280;15464;50.988;10.318;2022-09-20T08:11:40;99463.25;;;10.65;95.84
28181;BME280;15464;50.988;10.318;2022-09-20T08:14:11;99452.53;;;10.55;96.11
28181;BME280;15464;50.988;10.318;2022-09-20T08:16:41;99452.41;;;10.68;96.95
28181;BME280;15464;50.988;10.318;2022-09-20T08:19:14;99454.13;;;10.80;97.81
28181;BME280;15464;50.988;10.318;2022-09-20T08:21:40;99456.03;;;10.89;96.51
28181;BME280;15464;50.988;10.318;2022-09-20T08:24:07;99463.63;;;10.93;94.94
28181;BME280;15464;50.988;10.318;2022-09-20T08:26:34;99463.03;;;10.90;92.44
28181;BME280;15464;50.988;10.318;2022-09-20T08:29:01;99458.22;;;10.73;90.84
28181;BME280;15464;50.988;10.318;2022-09-20T08:31:32;99467.38;;;10.80;93.04
28181;BME280;15464;50.988;10.318;2022-09-20T08:34:04;99462.06;;;10.80;93.99
28181;BME280;15464;50.988;10.318;2022-09-20T08:36:33;99460.00;;;10.72;93.89
28181;BME280;15464;50.988;10.318;2022-09-20T08:39:02;99465.16;;;10.63;93.18
28181;BME280;15464;50.988;10.318;2022-09-20T08:42:09;99479.16;;;10.65;92.72
28181;BME280;15464;50.988;10.318;2022-09-20T08:44:43;99475.09;;;10.72;93.08
28181;BME280;15464;50.988;10.318;2022-09-20T08:47:37;99475.78;;;10.63;93.18
28181;BME280;15464;50.988;10.318;2022-09-20T08:50:09;99481.34;;;10.60;91.82
28181;BME280;15464;50.988;10.318;2022-09-20T08:52:39;99479.91;;;10.78;93.00
28181;BME280;15464;50.988;10.318;2022-09-20T08:55:16;99479.91;;;10.67;90.64
28181;BME280;15464;50.988;10.318;2022-09-20T08:57:47;99477.75;;;10.83;91.46
28181;BME280;15464;50.988;10.318;2022-09-20T09:00:20;99472.69;;;10.91;90.30
28181;BME280;15464;50.988;10.318;2022-09-20T09:02:50;99473.53;;;11.03;91.15
28181;BME280;15464;50.988;10.318;2022-09-20T09:05:37;99483.06;;;11.05;91.74
28181;BME280;15464;50.988;10.318;2022-09-20T09:08:13;99486.91;;;11.12;91.75
28181;BME280;15464;50.988;10.318;2022-09-20T09:10:45;99477.50;;;11.08;90.50
28181;BME280;15464;50.988;10.318;2022-09-20T09:13:36;99481.38;;;11.04;90.02
28181;BME280;15464;50.988;10.318;2022-09-20T09:16:10;99482.34;;;11.03;90.27
28181;BME280;15464;50.988;10.318;2022-09-20T09:18:41;99483.66;;;11.09;90.41
28181;BME280;15464;50.988;10.318;2022-09-20T09:21:17;99482.59;;;11.11;89.74
28181;BME280;15464;50.988;10.318;2022-09-20T09:23:54;99478.13;;;11.23;90.51
28181;BME280;15464;50.988;10.318;2022-09-20T09:26:25;99479.44;;;11.28;89.88
28181;BME280;15464;50.988;10.318;2022-09-20T09:29:22;99489.72;;;11.11;88.71
28181;BME280;15464;50.988;10.318;2022-09-20T09:31:51;99487.41;;;10.95;88.88
28181;BME280;15464;50.988;10.318;2022-09-20T09:34:26;99482.34;;;11.14;89.00
28181;BME280;15464;50.988;10.318;2022-09-20T09:36:53;99481.84;;;11.20;88.42
28181;BME280;15464;50.988;10.318;2022-09-20T09:39:27;99487.53;;;11.05;87.96
28181;BME280;15464;50.988;10.318;2022-09-20T09:41:55;99488.03;;;10.99;89.09
28181;BME280;15464;50.988;10.318;2022-09-20T09:44:30;99486.91;;;11.01;88.93
28181;BME280;15464;50.988;10.318;2022-09-20T09:46:59;99488.50;;;11.04;88.62
28181;BME280;15464;50.988;10.318;2022-09-20T09:49:30;99487.53;;;11.05;88.38
28181;BME280;15464;50.988;10.318;2022-09-20T09:52:14;99483.06;;;11.27;88.82
28181;BME280;15464;50.988;10.318;2022-09-20T09:54:48;99479.88;;;11.45;88.14
28181;BME280;15464;50.988;10.318;2022-09-20T10:00:03;99487.34;;;11.62;84.61
28181;BME280;15464;50.988;10.318;2022-09-20T10:03:00;99481.78;;;11.65;82.80
28181;BME280;15464;50.988;10.318;2022-09-20T10:22:39;99487.34;;;11.62;84.37
28181;BME280;15464;50.988;10.318;2022-09-20T10:29:02;99485.19;;;11.45;84.73
28181;BME280;15464;50.988;10.318;2022-09-20T10:34:37;99486.38;;;11.63;84.45
28181;BME280;15464;50.988;10.318;2022-09-20T10:40:04;99476.19;;;11.90;82.30
28181;BME280;15464;50.988;10.318;2022-09-20T10:45:23;99479.97;;;11.77;83.96
28181;BME280;15464;50.988;10.318;2022-09-20T10:48:35;99486.97;;;11.78;84.96
28181;BME280;15464;50.988;10.318;2022-09-20T10:51:14;99490.94;;;11.83;83.43
28181;BME280;15464;50.988;10.318;2022-09-20T10:54:14;99490.06;;;11.94;82.20
28181;BME280;15464;50.988;10.318;2022-09-20T10:56:51;99485.88;;;12.12;82.46
28181;BME280;15464;50.988;10.318;2022-09-20T11:08:14;99500.50;;;12.18;81.07
28181;BME280;15464;50.988;10.318;2022-09-20T11:10:45;99495.44;;;12.15;81.43
28181;BME280;15464;50.988;10.318;2022-09-20T11:15:49;99500.84;;;11.92;80.89
28181;BME280;15464;50.988;10.318;2022-09-20T11:18:22;99502.78;;;11.90;81.37
28181;BME280;15464;50.988;10.318;2022-09-20T11:21:02;99503.38;;;11.83;81.63
28181;BME280;15464;50.988;10.318;2022-09-20T11:26:34;99502.66;;;11.81;84.36
28181;BME280;15464;50.988;10.318;2022-09-20T11:35:00;99506.34;;;12.00;85.06
28181;BME280;15464;50.988;10.318;2022-09-20T11:37:35;99502.13;;;12.30;84.09
28181;BME280;15464;50.988;10.318;2022-09-20T11:40:20;99495.84;;;12.51;84.58
28181;BME280;15464;50.988;10.318;2022-09-20T11:42:48;99497.66;;;12.51;80.99
28181;BME280;15464;50.988;10.318;2022-09-20T11:45:16;99491.69;;;12.79;79.39
28181;BME280;15464;50.988;10.318;2022-09-20T11:47:49;99493.38;;;12.80;80.77
28181;BME280;15464;50.988;10.318;2022-09-20T11:53:50;99489.50;;;13.15;79.99
28181;BME280;15464;50.988;10.318;2022-09-20T11:56:29;99494.19;;;13.22;77.73
28181;BME280;15464;50.988;10.318;2022-09-20T11:59:00;99491.94;;;13.07;77.30
28181;BME280;15464;50.988;10.318;2022-09-20T12:03:58;99492.06;;;12.75;78.63
28181;BME280;15464;50.988;10.318;2022-09-20T12:06:46;99495.44;;;12.77;80.49
28181;BME280;15464;50.988;10.318;2022-09-20T12:10:18;99491.06;;;12.66;80.67
28181;BME280;15464;50.988;10.318;2022-09-20T12:14:58;99497.41;;;12.54;79.25
28181;BME280;15464;50.988;10.318;2022-09-20T12:18:02;99496.06;;;12.60;80.08
28181;BME280;15464;50.988;10.318;2022-09-20T12:28:53;99491.81;;;12.16;76.76
28181;BME280;15464;50.988;10.318;2022-09-20T12:39:35;99479.31;;;12.48;73.15
28181;BME280;15464;50.988;10.318;2022-09-20T12:42:30;99485.22;;;12.72;75.12
28181;BME280;15464;50.988;10.318;2022-09-20T12:45:15;99484.16;;;13.45;72.59
28181;BME280;15464;50.988;10.318;2022-09-20T12:47:51;99475.81;;;13.88;71.30
28181;BME280;15464;50.988;10.318;2022-09-20T12:50:20;99476.66;;;14.27;71.40
28181;BME280;15464;50.988;10.318;2022-09-20T12:53:15;99471.06;;;14.30;69.49
28181;BME280;15464;50.988;10.318;2022-09-20T12:55:52;99474.16;;;14.55;67.05
28181;BME280;15464;50.988;10.318;2022-09-20T12:58:23;99475.25;;;14.71;67.26
28181;BME280;15464;50.988;10.318;2022-09-20T13:11:40;99471.19;;;14.58;65.63
28181;BME280;15464;50.988;10.318;2022-09-20T13:19:18;99462.28;;;14.76;64.86
28181;BME280;15464;50.988;10.318;2022-09-20T13:21:53;99474.28;;;14.43;65.69
28181;BME280;15464;50.988;10.318;2022-09-20T13:26:52;99474.84;;;14.08;67.47
28181;BME280;15464;50.988;10.318;2022-09-20T13:29:31;99478.91;;;13.84;68.76
28181;BME280;15464;50.988;10.318;2022-09-20T13:32:24;99488.75;;;13.93;69.65
28181;BME280;15464;50.988;10.318;2022-09-20T13:35:20;99484.91;;;13.76;68.14
28181;BME280;15464;50.988;10.318;2022-09-20T13:37:54;99485.38;;;13.91;68.25
28181;BME280;15464;50.988;10.318;2022-09-20T13:40:37;99486.78;;;14.04;68.88
28181;BME280;15464;50.988;10.318;2022-09-20T13:43:25;99489.28;;;13.87;67.91
28181;BME280;15464;50.988;10.318;2022-09-20T13:45:58;99491.59;;;14.39;68.95
28181;BME280;15464;50.988;10.318;2022-09-20T13:48:27;99491.00;;;14.45;67.42
28181;BME280;15464;50.988;10.318;2022-09-20T13:50:55;99488.69;;;14.89;66.47
28181;BME280;15464;50.988;10.318;2022-09-20T13:53:24;99481.25;;;14.83;67.69
28181;BME280;15464;50.988;10.318;2022-09-20T13:56:30;99487.59;;;14.24;66.57
28181;BME280;15464;50.988;10.318;2022-09-20T13:58:56;99486.72;;;14.91;65.44
28181;BME280;15464;50.988;10.318;2022-09-20T14:01:35;99490.44;;;15.08;62.34
28181;BME280;15464;50.988;10.318;2022-09-20T14:04:14;99485.22;;;14.79;62.81
28181;BME280;15464;50.988;10.318;2022-09-20T14:06:41;99488.19;;;14.57;62.33
28181;BME280;15464;50.988;10.318;2022-09-20T14:09:20;99489.84;;;14.00;61.68
28181;BME280;15464;50.988;10.318;2022-09-20T14:11:49;99489.28;;;14.06;63.52
28181;BME280;15464;50.988;10.318;2022-09-20T14:14:17;99494.66;;;14.35;65.37
28181;BME280;15464;50.988;10.318;2022-09-20T14:16:48;99498.88;;;14.47;64.85
28181;BME280;15464;50.988;10.318;2022-09-20T14:19:17;99492.69;;;14.56;64.24
28181;BME280;15464;50.988;10.318;2022-09-20T14:21:46;99496.63;;;14.52;64.13
28181;BME280;15464;50.988;10.318;2022-09-20T14:26:41;99486.75;;;14.62;63.51
28181;BME280;15464;50.988;10.318;2022-09-20T14:31:56;99483.69;;;14.57;63.44
28181;BME280;15464;50.988;10.318;2022-09-20T14:34:24;99490.28;;;14.63;63.63
28181;BME280;15464;50.988;10.318;2022-09-20T14:37:02;99484.41;;;14.49;61.87
28181;BME280;15464;50.988;10.318;2022-09-20T14:39:31;99484.97;;;15.00;63.07
28181;BME280;15464;50.988;10.318;2022-09-20T14:41:58;99485.38;;;15.14;61.86
28181;BME280;15464;50.988;10.318;2022-09-20T14:44:30;99487.09;;;15.43;61.57
28181;BME280;15464;50.988;10.318;2022-09-20T14:46:58;99476.06;;;15.46;61.69
28181;BME280;15464;50.988;10.318;2022-09-20T14:51:52;99491.03;;;15.11;58.74
28181;BME280;15464;50.988;10.318;2022-09-20T14:54:26;99477.81;;;15.00;58.19
28181;BME280;15464;50.988;10.318;2022-09-20T14:56:57;99485.38;;;14.68;59.06
28181;BME280;15464;50.988;10.318;2022-09-20T14:59:26;99480.44;;;14.63;55.84
28181;BME280;15464;50.988;10.318;2022-09-20T15:04:21;99488.19;;;14.57;57.82
28181;BME280;15464;50.988;10.318;2022-09-20T15:06:49;99484.56;;;14.48;58.03
28181;BME280;15464;50.988;10.318;2022-09-20T15:09:17;99489.88;;;14.58;59.46
28181;BME280;15464;50.988;10.318;2022-09-20T15:11:44;99496.91;;;14.30;59.48
28181;BME280;15464;50.988;10.318;2022-09-20T15:14:11;99502.91;;;14.12;61.61
28181;BME280;15464;50.988;10.318;2022-09-20T15:16:38;99508.81;;;13.97;62.80
28181;BME280;15464;50.988;10.318;2022-09-20T15:19:04;99508.41;;;13.92;62.87
28181;BME280;15464;50.988;10.318;2022-09-20T15:21:33;99514.63;;;13.62;64.07
28181;BME280;15464;50.988;10.318;2022-09-20T15:24:00;99515.59;;;13.51;64.71
28181;BME280;15464;50.988;10.318;2022-09-20T15:26:26;99519.31;;;13.29;64.92
28181;BME280;15464;50.988;10.318;2022-09-20T15:28:53;99515.38;;;13.33;65.37
28181;BME280;15464;50.988;10.318;2022-09-20T15:31:20;99523.69;;;13.40;65.37
28181;BME280;15464;50.988;10.318;2022-09-20T15:33:46;99524.22;;;13.34;65.29
28181;BME280;15464;50.988;10.318;2022-09-20T15:36:13;99528.84;;;13.32;64.97
28181;BME280;15464;50.988;10.318;2022-09-20T15:38:40;99536.72;;;13.13;65.90
28181;BME280;15464;50.988;10.318;2022-09-20T15:41:06;99535.38;;;12.98;66.14
28181;BME280;15464;50.988;10.318;2022-09-20T15:43:33;99536.34;;;12.97;65.83
28181;BME280;15464;50.988;10.318;2022-09-20T15:46:16;99535.06;;;12.91;66.24
28181;BME280;15464;50.988;10.318;2022-09-20T15:48:43;99538.81;;;12.88;66.62
28181;BME280;15464;50.988;10.318;2022-09-20T15:51:11;99525.28;;;13.01;66.23
28181;BME280;15464;50.988;10.318;2022-09-20T15:53:40;99533.88;;;13.05;66.51
28181;BME280;15464;50.988;10.318;2022-09-20T15:56:17;99530.22;;;13.06;65.95
28181;BME280;15464;50.988;10.318;2022-09-20T15:58:58;99536.53;;;13.05;66.04
28181;BME280;15464;50.988;10.318;2022-09-20T16:01:27;99527.94;;;13.01;65.98
28181;BME280;15464;50.988;10.318;2022-09-20T16:03:54;99536.66;;;13.03;66.35
28181;BME280;15464;50.988;10.318;2022-09-20T16:06:22;99535.09;;;13.01;66.04
28181;BME280;15464;50.988;10.318;2022-09-20T16:08:50;99540.25;;;12.92;67.35
28181;BME280;15464;50.988;10.318;2022-09-20T16:11:19;99537.13;;;12.87;67.32
28181;BME280;15464;50.988;10.318;2022-09-20T16:13:53;99535.50;;;12.75;67.77
28181;BME280;15464;50.988;10.318;2022-09-20T16:16:20;99538.31;;;12.53;68.08
28181;BME280;15464;50.988;10.318;2022-09-20T16:18:47;99539.06;;;12.44;69.57
28181;BME280;15464;50.988;10.318;2022-09-20T16:21:33;99546.00;;;12.35;69.40
28181;BME280;15464;50.988;10.318;2022-09-20T16:24:00;99537.19;;;12.35;69.51
28181;BME280;15464;50.988;10.318;2022-09-20T16:26:27;99545.66;;;12.29;69.83
28181;BME280;15464;50.988;10.318;2022-09-20T16:28:54;99543.25;;;12.26;70.87
28181;BME280;15464;50.988;10.318;2022-09-20T16:31:30;99553.31;;;12.22;70.63
28181;BME280;15464;50.988;10.318;2022-09-20T16:33:58;99553.19;;;12.12;70.92
28181;BME280;15464;50.988;10.318;2022-09-20T16:36:25;99552.03;;;11.94;71.46
28181;BME280;15464;50.988;10.318;2022-09-20T16:38:53;99565.50;;;11.93;71.86
28181;BME280;15464;50.988;10.318;2022-09-20T16:41:25;99555.50;;;11.74;72.33
28181;BME280;15464;50.988;10.318;2022-09-20T16:43:52;99564.75;;;11.68;72.66
28181;BME280;15464;50.988;10.318;2022-09-20T16:46:23;99567.19;;;11.49;73.40
28181;BME280;15464;50.988;10.318;2022-09-20T16:48:55;99578.91;;;11.47;73.95
28181;BME280;15464;50.988;10.318;2022-09-20T16:51:27;99575.78;;;11.42;73.62
28181;BME280;15464;50.988;10.318;2022-09-20T16:53:57;99577.47;;;11.43;74.13
28181;BME280;15464;50.988;10.318;2022-09-20T16:56:25;99583.00;;;11.40;74.38
28181;BME280;15464;50.988;10.318;2022-09-20T16:58:54;99575.41;;;11.24;74.97
28181;BME280;15464;50.988;10.318;2022-09-20T17:01:21;99580.56;;;11.25;74.63
28181;BME280;15464;50.988;10.318;2022-09-20T17:03:48;99586.63;;;11.27;75.26
28181;BME280;15464;50.988;10.318;2022-09-20T17:06:15;99587.84;;;11.23;75.41
28181;BME280;15464;50.988;10.318;2022-09-20T17:08:42;99586.25;;;11.21;75.28
28181;BME280;15464;50.988;10.318;2022-09-20T17:11:12;99595.19;;;11.20;75.98
28181;BME280;15464;50.988;10.318;2022-09-20T17:13:42;99603.16;;;11.20;75.89
28181;BME280;15464;50.988;10.318;2022-09-20T17:16:13;99606.38;;;11.12;75.98
28181;BME280;15464;50.988;10.318;2022-09-20T17:18:41;99605.41;;;11.02;76.58
28181;BME280;15464;50.988;10.318;2022-09-20T17:21:13;99616.75;;;10.93;77.15
28181;BME280;15464;50.988;10.318;2022-09-20T17:23:42;99621.03;;;10.83;77.62
28181;BME280;15464;50.988;10.318;2022-09-20T17:26:18;99619.09;;;10.74;77.61
28181;BME280;15464;50.988;10.318;2022-09-20T17:28:47;99623.03;;;10.68;78.27
28181;BME280;15464;50.988;10.318;2022-09-20T17:31:17;99629.88;;;10.60;78.83
28181;BME280;15464;50.988;10.318;2022-09-20T17:33:44;99626.00;;;10.52;79.03
28181;BME280;15464;50.988;10.318;2022-09-20T17:36:15;99631.00;;;10.44;79.53
28181;BME280;15464;50.988;10.318;2022-09-20T17:38:44;99643.03;;;10.37;79.38
28181;BME280;15464;50.988;10.318;2022-09-20T17:41:13;99635.13;;;10.25;80.57
28181;BME280;15464;50.988;10.318;2022-09-20T17:43:41;99638.53;;;10.14;80.65
28181;BME280;15464;50.988;10.318;2022-09-20T17:46:12;99637.06;;;10.10;80.54
28181;BME280;15464;50.988;10.318;2022-09-20T17:48:41;99646.72;;;10.11;80.30
28181;BME280;15464;50.988;10.318;2022-09-20T17:51:09;99655.97;;;10.05;80.54
28181;BME280;15464;50.988;10.318;2022-09-20T17:53:38;99658.06;;;10.00;81.27
28181;BME280;15464;50.988;10.318;2022-09-20T17:56:04;99659.69;;;9.90;81.71
28181;BME280;15464;50.988;10.318;2022-09-20T17:58:33;99669.88;;;9.84;81.76
28181;BME280;15464;50.988;10.318;2022-09-20T18:01:01;99665.66;;;9.68;82.87
28181;BME280;15464;50.988;10.318;2022-09-20T18:03:28;99671.38;;;9.62;82.67
28181;BME280;15464;50.988;10.318;2022-09-20T18:05:55;99674.47;;;9.56;82.77
28181;BME280;15464;50.988;10.318;2022-09-20T18:08:22;99682.53;;;9.55;82.73
28181;BME280;15464;50.988;10.318;2022-09-20T18:10:55;99683.06;;;9.47;83.00
28181;BME280;15464;50.988;10.318;2022-09-20T18:13:24;99684.31;;;9.42;83.15
28181;BME280;15464;50.988;10.318;2022-09-20T18:15:52;99684.19;;;9.43;84.01
28181;BME280;15464;50.988;10.318;2022-09-20T18:18:20;99685.69;;;9.35;84.23
28181;BME280;15464;50.988;10.318;2022-09-20T18:20:47;99693.31;;;9.26;84.32
28181;BME280;15464;50.988;10.318;2022-09-20T18:23:14;99692.69;;;9.23;85.01
28181;BME280;15464;50.988;10.318;2022-09-20T18:25:41;99695.63;;;9.18;85.14
28181;BME280;15464;50.988;10.318;2022-09-20T18:28:26;99698.47;;;9.15;85.02
28181;BME280;15464;50.988;10.318;2022-09-20T18:31:03;99705.78;;;9.12;85.58
28181;BME280;15464;50.988;10.318;2022-09-20T18:33:31;99707.69;;;9.10;85.61
28181;BME280;15464;50.988;10.318;2022-09-20T18:36:02;99701.63;;;9.08;86.13
28181;BME280;15464;50.988;10.318;2022-09-20T18:38:29;99711.78;;;9.01;86.71
28181;BME280;15464;50.988;10.318;2022-09-20T18:40:56;99702.16;;;9.00;86.23
28181;BME280;15464;50.988;10.318;2022-09-20T18:43:29;99709.34;;;8.98;86.70
28181;BME280;15464;50.988;10.318;2022-09-20T18:45:57;99710.00;;;9.02;86.35
28181;BME280;15464;50.988;10.318;2022-09-20T18:48:25;99712.09;;;8.97;87.60
28181;BME280;15464;50.988;10.318;2022-09-20T18:51:02;99714.22;;;8.92;87.36
28181;BME280;15464;50.988;10.318;2022-09-20T18:53:31;99719.69;;;8.88;88.33
28181;BME280;15464;50.988;10.318;2022-09-20T18:56:10;99716.72;;;8.80;88.65
28181;BME280;15464;50.988;10.318;2022-09-20T18:58:43;99724.84;;;8.77;89.52
28181;BME280;15464;50.988;10.318;2022-09-20T19:01:14;99722.19;;;8.77;88.72
28181;BME280;15464;50.988;10.318;2022-09-20T19:09:59;99726.19;;;8.70;88.89
28181;BME280;15464;50.988;10.318;2022-09-20T19:12:56;99723.19;;;8.62;90.01
28181;BME280;15464;50.988;10.318;2022-09-20T19:24:04;99745.72;;;8.55;91.30
28181;BME280;15464;50.988;10.318;2022-09-20T19:26:35;99753.06;;;8.50;92.20
28181;BME280;15464;50.988;10.318;2022-09-20T19:29:16;99749.47;;;8.51;91.76
28181;BME280;15464;50.988;10.318;2022-09-20T19:31:44;99755.16;;;8.45;92.45
28181;BME280;15464;50.988;10.318;2022-09-20T19:34:17;99751.66;;;8.44;91.63
28181;BME280;15464;50.988;10.318;2022-09-20T19:39:57;99758.34;;;8.50;91.16
28181;BME280;15464;50.988;10.318;2022-09-20T19:45:49;99761.00;;;8.50;91.21
28181;BME280;15464;50.988;10.318;2022-09-20T19:48:36;99768.28;;;8.46;90.75
28181;BME280;15464;50.988;10.318;2022-09-20T19:51:08;99762.06;;;8.47;90.38
28181;BME280;15464;50.988;10.318;2022-09-20T19:53:36;99763.84;;;8.47;91.03
28181;BME280;15464;50.988;10.318;2022-09-20T19:58:39;99768.03;;;8.37;90.15
28181;BME280;15464;50.988;10.318;2022-09-20T20:01:09;99768.28;;;8.32;90.32
28181;BME280;15464;50.988;10.318;2022-09-20T20:03:36;99768.66;;;8.26;90.50
28181;BME280;15464;50.988;10.318;2022-09-20T20:06:20;99778.56;;;8.23;90.59
28181;BME280;15464;50.988;10.318;2022-09-20T20:14:10;99769.50;;;8.13;91.18
28181;BME280;15464;50.988;10.318;2022-09-20T20:17:02;99780.66;;;8.03;90.66